createdAt,value
2023-02-01T00:01:24.062Z,0.98
2023-02-01T00:03:52.199Z,1.01
2023-02-01T00:06:23.411Z,1.05
2023-02-01T00:08:55.700Z,1.11
2023-02-01T00:11:24.372Z,1.17
2023-02-01T00:13:53.003Z,1.23
2023-02-01T00:16:26.837Z,1.27
2023-02-01T00:19:15.224Z,1.33
2023-02-01T00:21:44.956Z,1.39
2023-02-01T00:24:13.239Z,1.41
2023-02-01T00:26:43.306Z,1.41
2023-02-01T00:29:19.432Z,1.40
2023-02-01T00:31:48.180Z,1.39
2023-02-01T00:34:17.307Z,1.35
2023-02-01T00:36:46.301Z,1.35
2023-02-01T00:39:14.438Z,1.35
2023-02-01T00:41:42.624Z,1.36
2023-02-01T00:44:11.345Z,1.38
2023-02-01T00:46:39.418Z,1.40
2023-02-01T00:49:08.467Z,1.40
2023-02-01T00:51:38.005Z,1.36
2023-02-01T00:54:06.689Z,1.32
2023-02-01T00:56:34.864Z,1.31
2023-02-01T00:59:02.820Z,1.31
2023-02-01T01:01:31.491Z,1.33
2023-02-01T01:04:00.248Z,1.33
2023-02-01T01:06:31.099Z,1.34
2023-02-01T01:09:03.036Z,1.32
2023-02-01T01:11:33.431Z,1.29
2023-02-01T01:14:02.918Z,1.27
2023-02-01T01:16:32.108Z,1.27
2023-02-01T01:19:00.273Z,1.26
2023-02-01T01:21:28.980Z,1.27
2023-02-01T01:23:57.400Z,1.28
2023-02-01T01:26:27.758Z,1.27
2023-02-01T01:28:57.642Z,1.25
2023-02-01T01:31:26.485Z,1.20
2023-02-01T01:33:56.046Z,1.16
2023-02-01T01:36:24.982Z,1.13
2023-02-01T01:38:53.824Z,1.11
2023-02-01T01:41:24.012Z,1.13
2023-02-01T01:43:55.784Z,1.12
2023-02-01T01:46:30.170Z,1.10
2023-02-01T01:49:02.782Z,1.08
2023-02-01T01:51:31.569Z,1.07
2023-02-01T01:54:21.230Z,1.03
2023-02-01T01:56:52.265Z,1.01
2023-02-01T01:59:22.125Z,1.00
2023-02-01T02:01:50.409Z,1.03
2023-02-01T02:04:22.016Z,1.06
2023-02-01T02:07:12.870Z,1.07
2023-02-01T02:09:45.378Z,1.08
2023-02-01T02:12:16.206Z,1.10
2023-02-01T02:14:45.144Z,1.09
2023-02-01T02:17:35.406Z,1.08
2023-02-01T02:20:34.562Z,1.06
2023-02-01T02:23:23.679Z,1.07
2023-02-01T02:26:07.603Z,1.11
2023-02-01T02:28:41.884Z,1.16
2023-02-01T02:31:22.638Z,1.17
2023-02-01T02:34:03.076Z,1.18
2023-02-01T02:36:49.926Z,1.16
2023-02-01T02:39:36.717Z,1.13
2023-02-01T02:42:42.743Z,1.10
2023-02-01T02:46:02.031Z,1.10
2023-02-01T02:48:46.019Z,1.16
2023-02-01T02:51:40.065Z,1.22
2023-02-01T02:54:33.829Z,1.24
2023-02-01T02:57:22.205Z,1.24
2023-02-01T03:00:09.426Z,1.26
2023-02-01T03:03:06.193Z,1.27
2023-02-01T03:05:38.710Z,1.28
2023-02-01T03:08:46.826Z,1.26
2023-02-01T03:11:15.332Z,1.26
2023-02-01T03:14:02.131Z,1.32
2023-02-01T03:16:50.470Z,1.38
2023-02-01T03:19:38.696Z,1.42
2023-02-01T03:22:09.220Z,1.41
2023-02-01T03:24:45.037Z,1.37
2023-02-01T03:27:24.536Z,1.33
2023-02-01T03:30:11.285Z,1.29
2023-02-01T03:32:59.895Z,1.26
2023-02-01T03:35:35.004Z,1.26
2023-02-01T03:38:09.354Z,1.27
2023-02-01T03:40:40.694Z,1.26
2023-02-01T03:43:08.741Z,1.26
2023-02-01T03:45:41.843Z,1.29
2023-02-01T03:48:10.227Z,1.28
2023-02-01T03:50:39.797Z,1.24
2023-02-01T03:53:09.661Z,1.21
2023-02-01T03:55:37.797Z,1.19
2023-02-01T03:58:12.934Z,1.17
2023-02-01T04:00:41.348Z,1.11
2023-02-01T04:03:09.348Z,1.03
2023-02-01T04:05:37.528Z,1.00
2023-02-01T04:08:08.133Z,1.01
2023-02-01T04:10:38.765Z,0.99
2023-02-01T04:13:06.851Z,0.98
2023-02-01T04:15:36.053Z,0.97
2023-02-01T04:18:04.329Z,0.98
2023-02-01T04:20:32.683Z,0.97
2023-02-01T04:23:03.593Z,0.93
2023-02-01T04:25:32.302Z,0.90
2023-02-01T04:28:01.071Z,0.93
2023-02-01T04:30:30.415Z,0.92
2023-02-01T04:32:58.515Z,0.93
2023-02-01T04:35:31.034Z,0.95
2023-02-01T04:38:00.044Z,0.96
2023-02-01T04:40:29.219Z,0.98
2023-02-01T04:42:57.476Z,0.99
2023-02-01T04:45:25.520Z,0.98
2023-02-01T04:47:54.178Z,0.98
2023-02-01T04:50:22.756Z,1.01
2023-02-01T04:52:51.321Z,1.06
2023-02-01T04:55:19.963Z,1.13
2023-02-01T04:57:47.991Z,1.15
2023-02-01T05:00:17.007Z,1.11
2023-02-01T05:02:45.391Z,1.08
2023-02-01T05:05:13.726Z,1.04
2023-02-01T05:07:41.986Z,1.02
2023-02-01T05:10:10.823Z,1.01
2023-02-01T05:12:57.873Z,1.04
2023-02-01T05:15:25.911Z,1.04
2023-02-01T05:17:54.065Z,1.03
2023-02-01T05:20:22.463Z,1.05
2023-02-01T05:22:51.229Z,1.04
2023-02-01T05:25:50.822Z,1.03
2023-02-01T05:28:18.930Z,1.01
2023-02-01T05:30:47.131Z,1.01
2023-02-01T05:33:15.332Z,1.00
2023-02-01T05:35:43.528Z,1.01
2023-02-01T05:38:12.172Z,1.02
2023-02-01T05:40:40.645Z,1.04
2023-02-01T05:43:08.862Z,1.02
2023-02-01T05:45:37.557Z,1.02
2023-02-01T09:15:54.998Z,1.61
2023-02-01T09:18:23.270Z,1.60
2023-02-01T09:20:51.490Z,1.61
2023-02-01T09:23:21.431Z,1.64
2023-02-01T09:25:52.543Z,1.72
2023-02-01T09:28:21.119Z,1.80
2023-02-01T09:30:49.242Z,1.90
2023-02-01T09:33:18.710Z,2.00
2023-02-01T09:35:47.025Z,2.14
2023-02-01T09:38:15.709Z,2.28
2023-02-01T09:40:46.264Z,2.40
2023-02-01T09:43:52.652Z,2.46
2023-02-01T09:46:23.844Z,2.55
2023-02-01T09:48:55.038Z,2.62
2023-02-01T09:51:25.628Z,2.65
2023-02-01T09:54:18.875Z,2.73
2023-02-01T09:56:52.106Z,2.85
2023-02-01T09:59:32.081Z,2.94
2023-02-01T10:02:00.807Z,2.99
2023-02-01T10:04:29.853Z,3.06
2023-02-01T10:06:59.163Z,3.16
2023-02-01T10:09:33.741Z,3.18
2023-02-01T10:12:23.804Z,3.19
2023-02-01T10:15:35.275Z,3.22
2023-02-01T10:18:25.550Z,3.24
2023-02-01T10:20:58.872Z,3.23
2023-02-01T10:23:43.443Z,3.24
2023-02-01T10:26:40.717Z,3.23
2023-02-01T10:29:17.135Z,3.21
2023-02-01T10:31:45.992Z,3.17
2023-02-01T10:34:19.515Z,3.10
2023-02-01T10:36:56.565Z,3.06
2023-02-01T10:39:24.909Z,3.06
2023-02-01T10:41:53.020Z,3.07
2023-02-01T10:44:25.235Z,3.07
2023-02-01T10:46:53.486Z,3.03
2023-02-01T10:49:43.329Z,2.97
2023-02-01T10:52:32.655Z,2.91
2023-02-01T10:55:26.480Z,2.84
2023-02-01T10:57:56.593Z,2.77
2023-02-01T11:00:26.790Z,2.73
2023-02-01T11:02:55.506Z,2.66
2023-02-01T11:05:24.764Z,2.54
2023-02-01T11:07:55.969Z,2.43
2023-02-01T11:10:37.131Z,2.35
2023-02-01T11:13:05.491Z,2.35
2023-02-01T11:15:34.193Z,2.33
2023-02-01T11:18:15.697Z,2.28
2023-02-01T11:20:44.194Z,2.23
2023-02-01T11:23:15.675Z,2.16
2023-02-01T11:25:58.477Z,2.12
2023-02-01T11:28:34.555Z,2.03
2023-02-01T11:31:05.848Z,1.99
2023-02-01T11:33:36.260Z,1.94
2023-02-01T11:36:22.075Z,1.95
2023-02-01T11:39:10.385Z,1.97
2023-02-01T11:41:45.853Z,1.93
2023-02-01T11:44:22.520Z,1.89
2023-02-01T11:46:50.672Z,1.90
2023-02-01T11:49:26.706Z,1.89
2023-02-01T11:52:39.040Z,1.93
2023-02-01T11:55:34.777Z,1.96
2023-02-01T11:58:28.466Z,1.98
2023-02-01T12:01:27.959Z,1.96
2023-02-01T12:04:02.005Z,1.88
2023-02-01T12:06:39.199Z,1.83
2023-02-01T12:09:27.333Z,1.72
2023-02-01T12:12:07.779Z,1.67
2023-02-01T12:15:16.383Z,1.63
2023-02-01T12:17:57.089Z,1.59
2023-02-01T12:20:33.903Z,1.55
2023-02-01T12:23:23.227Z,1.49
2023-02-01T12:25:54.665Z,1.46
2023-02-01T12:28:58.079Z,1.44
2023-02-01T12:31:54.275Z,1.43
2023-02-01T12:34:52.136Z,1.43
2023-02-01T12:37:37.633Z,1.46
2023-02-01T12:40:20.671Z,1.48
2023-02-01T12:43:11.590Z,1.52
2023-02-01T12:45:50.948Z,1.49
2023-02-01T12:48:31.231Z,1.50
2023-02-01T12:51:10.449Z,1.49
2023-02-01T12:53:46.998Z,1.45
2023-02-01T12:56:22.333Z,1.42
2023-02-01T12:59:01.876Z,1.42
2023-02-01T13:01:40.542Z,1.43
2023-02-01T13:04:20.316Z,1.48
2023-02-01T13:07:15.535Z,1.53
2023-02-01T13:09:52.429Z,1.53
2023-02-01T13:12:32.255Z,1.48
2023-02-01T13:15:22.984Z,1.43
2023-02-01T13:17:54.697Z,1.40
2023-02-01T13:20:28.171Z,1.38
2023-02-01T13:23:00.799Z,1.42
2023-02-01T13:25:32.053Z,1.45
2023-02-01T13:28:05.329Z,1.40
2023-02-01T13:30:48.873Z,1.34
2023-02-01T13:33:52.404Z,1.36
2023-02-01T13:36:32.708Z,1.39
2023-02-01T13:39:34.600Z,1.37
2023-02-01T13:42:04.461Z,1.34
2023-02-01T17:45:40.711Z,1.00
2023-02-01T17:48:08.911Z,1.01
2023-02-01T17:50:43.418Z,1.06
2023-02-01T17:53:15.311Z,1.13
2023-02-01T17:55:45.336Z,1.21
2023-02-01T17:58:14.937Z,1.30
2023-02-01T18:00:43.990Z,1.40
2023-02-01T18:03:30.756Z,1.50
2023-02-01T18:05:59.595Z,1.58
2023-02-01T18:08:29.656Z,1.67
2023-02-01T18:11:00.928Z,1.75
2023-02-01T18:13:31.414Z,1.82
2023-02-01T18:16:00.199Z,1.90
2023-02-01T18:18:31.411Z,1.97
2023-02-01T18:20:59.831Z,2.03
2023-02-01T18:23:28.286Z,2.07
2023-02-01T18:25:56.355Z,2.09
2023-02-01T18:28:24.663Z,2.07
2023-02-01T18:30:52.968Z,2.09
2023-02-01T18:33:22.417Z,2.13
2023-02-01T18:35:50.761Z,2.16
2023-02-01T18:38:19.100Z,2.19
2023-02-01T18:41:01.990Z,2.20
2023-02-01T18:43:30.207Z,2.24
2023-02-01T18:45:59.452Z,2.26
2023-02-01T18:48:28.190Z,2.26
2023-02-01T18:50:58.513Z,2.23
2023-02-01T18:53:27.695Z,2.21
2023-02-01T18:55:59.346Z,2.19
2023-02-01T18:58:27.563Z,2.19
2023-02-01T19:00:57.902Z,2.18
2023-02-01T19:03:28.892Z,2.19
2023-02-01T19:05:57.479Z,2.20
2023-02-01T19:08:27.398Z,2.21
2023-02-01T19:10:55.472Z,2.22
2023-02-01T19:13:26.123Z,2.21
2023-02-01T19:15:57.041Z,2.19
2023-02-01T19:18:25.279Z,2.18
2023-02-01T19:20:55.122Z,2.18
2023-02-01T19:23:23.684Z,2.21
2023-02-01T19:25:52.458Z,2.23
2023-02-01T19:28:20.860Z,2.24
2023-02-01T19:30:49.285Z,2.23
2023-02-01T19:33:17.672Z,2.20
2023-02-01T19:35:45.970Z,2.18
2023-02-01T19:38:14.896Z,2.20
2023-02-01T19:40:43.617Z,2.22
2023-02-01T19:43:12.255Z,2.25
2023-02-01T19:45:40.416Z,2.28
2023-02-01T19:48:13.238Z,2.33
2023-02-01T19:50:41.551Z,2.35
2023-02-01T19:53:09.698Z,2.36
2023-02-01T19:55:38.263Z,2.38
2023-02-01T19:58:06.490Z,2.37
2023-02-01T20:00:34.708Z,2.35
2023-02-01T20:03:03.035Z,2.36
2023-02-01T20:05:31.229Z,2.40
2023-02-01T20:08:00.744Z,2.42
2023-02-01T20:10:29.824Z,2.43
2023-02-01T20:12:58.316Z,2.44
2023-02-01T20:15:28.650Z,2.41
2023-02-01T20:17:57.151Z,2.41
2023-02-01T20:20:26.369Z,2.41
2023-02-01T20:22:54.338Z,2.41
2023-02-01T20:25:24.111Z,2.38
2023-02-01T20:27:53.311Z,2.38
2023-02-01T20:30:24.869Z,2.38
2023-02-01T20:32:53.603Z,2.37
2023-02-01T20:35:22.752Z,2.35
2023-02-01T20:37:52.054Z,2.38
2023-02-01T20:40:20.110Z,2.39
2023-02-01T20:42:48.949Z,2.40
2023-02-01T20:45:17.599Z,2.40
2023-02-01T20:47:52.830Z,2.38
2023-02-01T20:50:21.139Z,2.35
2023-02-01T20:52:49.876Z,2.32
2023-02-01T20:55:18.035Z,2.33
2023-02-01T20:57:46.302Z,2.36
2023-02-01T21:00:15.666Z,2.38
2023-02-01T21:02:43.901Z,2.41
2023-02-01T21:05:12.135Z,2.40
2023-02-01T21:07:40.763Z,2.41
2023-02-01T21:10:10.441Z,2.40
2023-02-01T21:12:40.186Z,2.42
2023-02-01T21:15:09.288Z,2.46
2023-02-01T21:17:39.518Z,2.48
2023-02-01T21:20:09.348Z,2.53
2023-02-01T21:22:37.698Z,2.56
2023-02-01T21:25:06.483Z,2.54
2023-02-01T21:27:35.067Z,2.53
2023-02-01T21:30:06.360Z,2.54
2023-02-01T21:32:35.434Z,2.56
2023-02-01T21:35:05.273Z,2.56
2023-02-01T21:37:34.522Z,2.57
2023-02-01T21:40:02.593Z,2.56
2023-02-01T21:42:31.128Z,2.53
2023-02-01T21:44:59.683Z,2.50
2023-02-01T21:47:28.269Z,2.50
2023-02-01T21:49:56.508Z,2.50
2023-02-01T21:52:25.592Z,2.53
2023-02-01T21:54:59.562Z,2.53
2023-02-01T21:57:28.778Z,2.53
2023-02-01T21:59:59.027Z,2.52
2023-02-01T22:02:27.353Z,2.52
2023-02-01T22:04:57.690Z,2.48
2023-02-01T22:07:26.089Z,2.47
2023-02-01T22:09:54.166Z,2.52
2023-02-01T22:12:23.233Z,2.56
2023-02-01T22:14:51.545Z,2.58
2023-02-01T22:17:20.077Z,2.60
2023-02-01T22:19:48.029Z,2.60
2023-02-01T22:22:16.831Z,2.60
2023-02-01T22:24:45.534Z,2.59
2023-02-01T22:27:14.780Z,2.60
2023-02-01T22:29:43.583Z,2.61
2023-02-01T22:32:13.343Z,2.65
2023-02-01T22:34:41.588Z,2.67
2023-02-01T22:37:11.173Z,2.62
2023-02-01T22:39:40.771Z,2.59
2023-02-01T22:42:08.852Z,2.58
2023-02-01T22:44:36.864Z,2.58
2023-02-01T22:47:04.974Z,2.60
2023-02-01T22:49:33.383Z,2.60
2023-02-01T22:52:01.981Z,2.59
2023-02-01T22:54:30.424Z,2.57
2023-02-01T22:57:00.276Z,2.55
2023-02-01T22:59:28.554Z,2.55
2023-02-01T23:01:56.694Z,2.55
2023-02-01T23:04:25.580Z,2.55
2023-02-01T23:06:54.016Z,2.58
2023-02-01T23:09:25.787Z,2.60
2023-02-01T23:11:54.572Z,2.58
2023-02-01T23:14:22.533Z,2.55
2023-02-01T23:16:51.322Z,2.53
2023-02-01T23:19:20.998Z,2.53
2023-02-01T23:21:49.601Z,2.56
2023-02-01T23:24:17.556Z,2.59
2023-02-01T23:26:45.875Z,2.63
2023-02-01T23:29:18.458Z,2.64
2023-02-01T23:31:46.741Z,2.63
2023-02-01T23:34:14.755Z,2.63
2023-02-01T23:36:43.295Z,2.66
2023-02-01T23:39:11.196Z,2.69
2023-02-01T23:41:39.180Z,2.71
2023-02-01T23:44:07.689Z,2.74
2023-02-01T23:46:41.568Z,2.75
2023-02-01T23:49:10.203Z,2.73
2023-02-01T23:51:38.211Z,2.69
2023-02-01T23:54:07.193Z,2.67
2023-02-01T23:56:37.684Z,2.67
2023-02-01T23:59:07.446Z,2.69
